sensor_id;sensor_type;location;lat;lon;timestamp;temperature;humidity
79513;SHT31;68962;51.980;5.678;2023-10-09T00:00:13;16.6;77.2
79513;SHT31;68962;51.980;5.678;2023-10-09T00:04:59;16.6;77.3
79513;SHT31;68962;51.980;5.678;2023-10-09T00:07:29;16.6;77.3
79513;SHT31;68962;51.980;5.678;2023-10-09T00:09:58;16.5;77.0
79513;SHT31;68962;51.980;5.678;2023-10-09T00:12:31;16.5;77.2
79513;SHT31;68962;51.980;5.678;2023-10-09T00:15:00;16.5;77.0
79513;SHT31;68962;51.980;5.678;2023-10-09T00:17:34;16.5;76.9
79513;SHT31;68962;51.980;5.678;2023-10-09T00:20:04;16.6;77.1
79513;SHT31;68962;51.980;5.678;2023-10-09T00:22:42;16.6;77.1
79513;SHT31;68962;51.980;5.678;2023-10-09T00:25:13;16.6;77.0
79513;SHT31;68962;51.980;5.678;2023-10-09T00:27:48;16.6;76.9
79513;SHT31;68962;51.980;5.678;2023-10-09T00:30:17;16.6;76.7
79513;SHT31;68962;51.980;5.678;2023-10-09T00:32:48;16.7;76.5
79513;SHT31;68962;51.980;5.678;2023-10-09T00:35:25;16.7;76.8
79513;SHT31;68962;51.980;5.678;2023-10-09T00:38:11;16.7;76.8
79513;SHT31;68962;51.980;5.678;2023-10-09T00:40:48;16.7;76.8
79513;SHT31;68962;51.980;5.678;2023-10-09T00:43:23;16.7;76.7
79513;SHT31;68962;51.980;5.678;2023-10-09T00:45:57;16.6;76.8
79513;SHT31;68962;51.980;5.678;2023-10-09T00:48:29;16.6;76.8
79513;SHT31;68962;51.980;5.678;2023-10-09T00:51:03;16.6;76.8
79513;SHT31;68962;51.980;5.678;2023-10-09T00:53:38;16.6;76.5
79513;SHT31;68962;51.980;5.678;2023-10-09T00:56:07;16.6;76.6
79513;SHT31;68962;51.980;5.678;2023-10-09T00:58:43;16.7;76.6
79513;SHT31;68962;51.980;5.678;2023-10-09T01:01:12;16.7;76.5
79513;SHT31;68962;51.980;5.678;2023-10-09T01:03:43;16.7;76.6
79513;SHT31;68962;51.980;5.678;2023-10-09T01:06:12;16.7;76.6
79513;SHT31;68962;51.980;5.678;2023-10-09T01:08:48;16.7;76.6
79513;SHT31;68962;51.980;5.678;2023-10-09T01:11:28;16.7;76.5
79513;SHT31;68962;51.980;5.678;2023-10-09T01:13:57;16.7;76.5
79513;SHT31;68962;51.980;5.678;2023-10-09T01:16:33;16.8;76.4
79513;SHT31;68962;51.980;5.678;2023-10-09T01:19:04;16.8;76.3
79513;SHT31;68962;51.980;5.678;2023-10-09T01:21:38;16.8;76.3
79513;SHT31;68962;51.980;5.678;2023-10-09T01:24:08;16.8;76.1
79513;SHT31;68962;51.980;5.678;2023-10-09T01:26:38;16.9;76.1
79513;SHT31;68962;51.980;5.678;2023-10-09T01:29:14;16.9;75.9
79513;SHT31;68962;51.980;5.678;2023-10-09T01:31:44;16.9;75.8
79513;SHT31;68962;51.980;5.678;2023-10-09T01:34:18;16.9;75.8
79513;SHT31;68962;51.980;5.678;2023-10-09T01:36:50;17.0;75.7
79513;SHT31;68962;51.980;5.678;2023-10-09T01:39:21;17.0;75.6
79513;SHT31;68962;51.980;5.678;2023-10-09T01:41:53;17.0;75.4
79513;SHT31;68962;51.980;5.678;2023-10-09T01:44:29;17.1;75.3
79513;SHT31;68962;51.980;5.678;2023-10-09T01:47:01;17.1;75.2
79513;SHT31;68962;51.980;5.678;2023-10-09T01:49:34;17.1;75.1
79513;SHT31;68962;51.980;5.678;2023-10-09T01:52:04;17.2;74.9
79513;SHT31;68962;51.980;5.678;2023-10-09T01:54:35;17.2;75.0
79513;SHT31;68962;51.980;5.678;2023-10-09T01:57:06;17.2;74.7
79513;SHT31;68962;51.980;5.678;2023-10-09T01:59:39;17.3;74.8
79513;SHT31;68962;51.980;5.678;2023-10-09T02:02:10;17.3;74.5
79513;SHT31;68962;51.980;5.678;2023-10-09T02:07:24;17.5;74.0
79513;SHT31;68962;51.980;5.678;2023-10-09T02:10:00;17.5;73.8
79513;SHT31;68962;51.980;5.678;2023-10-09T02:12:28;17.6;73.8
79513;SHT31;68962;51.980;5.678;2023-10-09T02:15:00;17.7;73.8
79513;SHT31;68962;51.980;5.678;2023-10-09T02:17:36;17.8;73.3
79513;SHT31;68962;51.980;5.678;2023-10-09T02:20:15;18.0;72.7
79513;SHT31;68962;51.980;5.678;2023-10-09T02:22:50;18.1;71.7
79513;SHT31;68962;51.980;5.678;2023-10-09T02:25:19;18.2;71.3
79513;SHT31;68962;51.980;5.678;2023-10-09T02:27:49;18.2;71.1
79513;SHT31;68962;51.980;5.678;2023-10-09T02:30:25;18.1;71.2
79513;SHT31;68962;51.980;5.678;2023-10-09T02:33:00;18.1;71.4
79513;SHT31;68962;51.980;5.678;2023-10-09T02:35:35;18.1;71.7
79513;SHT31;68962;51.980;5.678;2023-10-09T02:38:06;18.0;71.9
79513;SHT31;68962;51.980;5.678;2023-10-09T02:40:40;18.0;72.0
79513;SHT31;68962;51.980;5.678;2023-10-09T02:43:14;18.0;72.2
79513;SHT31;68962;51.980;5.678;2023-10-09T02:45:45;17.9;72.4
79513;SHT31;68962;51.980;5.678;2023-10-09T02:48:16;17.9;72.6
79513;SHT31;68962;51.980;5.678;2023-10-09T02:50:46;17.9;72.9
79513;SHT31;68962;51.980;5.678;2023-10-09T02:53:17;17.8;73.1
79513;SHT31;68962;51.980;5.678;2023-10-09T02:55:53;17.8;73.3
79513;SHT31;68962;51.980;5.678;2023-10-09T02:58:33;17.8;73.5
79513;SHT31;68962;51.980;5.678;2023-10-09T03:01:11;17.8;73.7
79513;SHT31;68962;51.980;5.678;2023-10-09T03:03:42;17.8;73.9
79513;SHT31;68962;51.980;5.678;2023-10-09T03:06:14;17.8;74.0
79513;SHT31;68962;51.980;5.678;2023-10-09T03:08:47;17.8;74.0
79513;SHT31;68962;51.980;5.678;2023-10-09T03:11:16;17.8;74.1
79513;SHT31;68962;51.980;5.678;2023-10-09T03:13:45;17.8;74.2
79513;SHT31;68962;51.980;5.678;2023-10-09T03:16:14;17.8;74.4
79513;SHT31;68962;51.980;5.678;2023-10-09T03:18:46;17.8;74.3
79513;SHT31;68962;51.980;5.678;2023-10-09T03:21:15;17.8;74.4
79513;SHT31;68962;51.980;5.678;2023-10-09T03:23:46;17.8;74.4
79513;SHT31;68962;51.980;5.678;2023-10-09T03:26:17;17.8;74.4
79513;SHT31;68962;51.980;5.678;2023-10-09T03:28:48;17.8;74.5
79513;SHT31;68962;51.980;5.678;2023-10-09T03:31:16;17.8;74.6
79513;SHT31;68962;51.980;5.678;2023-10-09T03:33:47;17.8;74.7
79513;SHT31;68962;51.980;5.678;2023-10-09T03:36:15;17.8;74.8
79513;SHT31;68962;51.980;5.678;2023-10-09T03:38:44;17.8;74.9
79513;SHT31;68962;51.980;5.678;2023-10-09T03:41:12;17.8;75.0
79513;SHT31;68962;51.980;5.678;2023-10-09T03:43:46;17.8;75.2
79513;SHT31;68962;51.980;5.678;2023-10-09T03:46:15;17.8;75.3
79513;SHT31;68962;51.980;5.678;2023-10-09T03:48:56;18.0;75.1
79513;SHT31;68962;51.980;5.678;2023-10-09T03:51:39;18.1;74.5
79513;SHT31;68962;51.980;5.678;2023-10-09T03:59:02;18.5;73.1
79513;SHT31;68962;51.980;5.678;2023-10-09T04:01:32;18.6;72.7
79513;SHT31;68962;51.980;5.678;2023-10-09T04:04:06;18.6;72.2
79513;SHT31;68962;51.980;5.678;2023-10-09T04:06:37;18.6;71.9
79513;SHT31;68962;51.980;5.678;2023-10-09T04:09:09;18.6;71.9
79513;SHT31;68962;51.980;5.678;2023-10-09T04:12:00;18.7;71.9
79513;SHT31;68962;51.980;5.678;2023-10-09T04:14:44;18.7;71.9
79513;SHT31;68962;51.980;5.678;2023-10-09T04:17:17;18.8;71.6
79513;SHT31;68962;51.980;5.678;2023-10-09T04:20:01;18.8;71.6
79513;SHT31;68962;51.980;5.678;2023-10-09T04:22:46;18.8;71.3
79513;SHT31;68962;51.980;5.678;2023-10-09T04:25:23;18.8;71.2
79513;SHT31;68962;51.980;5.678;2023-10-09T04:27:56;18.8;71.3
79513;SHT31;68962;51.980;5.678;2023-10-09T04:30:30;18.8;71.4
79513;SHT31;68962;51.980;5.678;2023-10-09T04:33:04;18.8;71.5
79513;SHT31;68962;51.980;5.678;2023-10-09T04:35:38;18.8;71.3
79513;SHT31;68962;51.980;5.678;2023-10-09T04:38:11;18.8;71.4
79513;SHT31;68962;51.980;5.678;2023-10-09T04:40:40;18.8;71.3
79513;SHT31;68962;51.980;5.678;2023-10-09T04:43:26;18.8;71.3
79513;SHT31;68962;51.980;5.678;2023-10-09T04:45:58;18.8;71.5
79513;SHT31;68962;51.980;5.678;2023-10-09T04:48:39;18.7;72.0
79513;SHT31;68962;51.980;5.678;2023-10-09T04:51:15;18.6;72.3
79513;SHT31;68962;51.980;5.678;2023-10-09T04:53:54;18.6;72.5
79513;SHT31;68962;51.980;5.678;2023-10-09T04:56:26;18.5;72.8
79513;SHT31;68962;51.980;5.678;2023-10-09T04:58:58;18.5;73.2
79513;SHT31;68962;51.980;5.678;2023-10-09T05:01:34;18.5;73.2
79513;SHT31;68962;51.980;5.678;2023-10-09T05:04:10;18.5;73.4
79513;SHT31;68962;51.980;5.678;2023-10-09T05:06:48;18.5;73.6
79513;SHT31;68962;51.980;5.678;2023-10-09T05:09:26;18.4;73.7
79513;SHT31;68962;51.980;5.678;2023-10-09T05:12:02;18.4;73.9
79513;SHT31;68962;51.980;5.678;2023-10-09T05:14:42;18.4;74.0
79513;SHT31;68962;51.980;5.678;2023-10-09T05:17:15;18.5;74.4
79513;SHT31;68962;51.980;5.678;2023-10-09T05:19:45;18.6;74.1
79513;SHT31;68962;51.980;5.678;2023-10-09T05:22:47;18.7;73.6
79513;SHT31;68962;51.980;5.678;2023-10-09T05:25:30;18.8;73.2
79513;SHT31;68962;51.980;5.678;2023-10-09T05:28:20;18.9;72.8
79513;SHT31;68962;51.980;5.678;2023-10-09T05:31:08;19.0;72.6
79513;SHT31;68962;51.980;5.678;2023-10-09T05:33:39;19.0;72.5
79513;SHT31;68962;51.980;5.678;2023-10-09T05:36:14;19.1;72.2
79513;SHT31;68962;51.980;5.678;2023-10-09T05:38:55;19.3;71.7
79513;SHT31;68962;51.980;5.678;2023-10-09T05:41:35;19.4;71.3
79513;SHT31;68962;51.980;5.678;2023-10-09T05:44:33;19.5;70.7
79513;SHT31;68962;51.980;5.678;2023-10-09T05:48:50;19.4;70.5
79513;SHT31;68962;51.980;5.678;2023-10-09T05:51:29;19.4;70.9
79513;SHT31;68962;51.980;5.678;2023-10-09T05:54:17;19.4;70.8
79513;SHT31;68962;51.980;5.678;2023-10-09T05:56:57;19.4;70.8
79513;SHT31;68962;51.980;5.678;2023-10-09T05:59:42;19.4;70.9
79513;SHT31;68962;51.980;5.678;2023-10-09T06:02:26;19.4;71.1
79513;SHT31;68962;51.980;5.678;2023-10-09T06:05:11;19.3;71.2
79513;SHT31;68962;51.980;5.678;2023-10-09T06:08:02;19.3;71.4
79513;SHT31;68962;51.980;5.678;2023-10-09T06:10:34;19.3;71.6
79513;SHT31;68962;51.980;5.678;2023-10-09T06:13:09;19.2;71.7
79513;SHT31;68962;51.980;5.678;2023-10-09T06:16:00;19.2;71.8
79513;SHT31;68962;51.980;5.678;2023-10-09T06:18:42;19.2;72.1
79513;SHT31;68962;51.980;5.678;2023-10-09T06:21:16;19.1;72.2
79513;SHT31;68962;51.980;5.678;2023-10-09T06:24:12;19.1;72.3
79513;SHT31;68962;51.980;5.678;2023-10-09T06:26:46;19.1;72.4
79513;SHT31;68962;51.980;5.678;2023-10-09T06:29:40;19.0;72.7
79513;SHT31;68962;51.980;5.678;2023-10-09T06:32:24;19.0;73.0
79513;SHT31;68962;51.980;5.678;2023-10-09T06:35:23;18.9;73.3
79513;SHT31;68962;51.980;5.678;2023-10-09T06:37:58;18.9;73.6
79513;SHT31;68962;51.980;5.678;2023-10-09T06:40:50;18.8;73.9
79513;SHT31;68962;51.980;5.678;2023-10-09T06:43:38;18.8;73.9
79513;SHT31;68962;51.980;5.678;2023-10-09T06:46:16;18.8;73.9
79513;SHT31;68962;51.980;5.678;2023-10-09T06:49:01;18.8;73.8
79513;SHT31;68962;51.980;5.678;2023-10-09T06:51:36;18.8;74.0
79513;SHT31;68962;51.980;5.678;2023-10-09T06:54:10;18.8;74.1
79513;SHT31;68962;51.980;5.678;2023-10-09T06:56:45;18.8;74.1
79513;SHT31;68962;51.980;5.678;2023-10-09T06:59:30;18.8;74.3
79513;SHT31;68962;51.980;5.678;2023-10-09T07:02:14;18.8;74.6
79513;SHT31;68962;51.980;5.678;2023-10-09T07:04:58;18.8;74.7
79513;SHT31;68962;51.980;5.678;2023-10-09T07:07:31;18.8;74.7
79513;SHT31;68962;51.980;5.678;2023-10-09T07:10:03;18.9;74.4
79513;SHT31;68962;51.980;5.678;2023-10-09T07:12:48;18.9;74.1
79513;SHT31;68962;51.980;5.678;2023-10-09T07:15:21;19.0;73.9
79513;SHT31;68962;51.980;5.678;2023-10-09T07:18:45;19.0;73.7
79513;SHT31;68962;51.980;5.678;2023-10-09T07:21:22;19.1;73.6
79513;SHT31;68962;51.980;5.678;2023-10-09T07:23:57;19.1;73.6
79513;SHT31;68962;51.980;5.678;2023-10-09T07:26:31;19.1;73.6
79513;SHT31;68962;51.980;5.678;2023-10-09T07:29:10;19.2;73.6
79513;SHT31;68962;51.980;5.678;2023-10-09T07:31:52;19.2;73.5
79513;SHT31;68962;51.980;5.678;2023-10-09T07:34:31;19.3;73.3
79513;SHT31;68962;51.980;5.678;2023-10-09T07:37:06;19.4;73.0
79513;SHT31;68962;51.980;5.678;2023-10-09T07:39:36;19.4;72.8
79513;SHT31;68962;51.980;5.678;2023-10-09T07:42:09;19.5;72.5
79513;SHT31;68962;51.980;5.678;2023-10-09T07:44:46;19.5;72.4
79513;SHT31;68962;51.980;5.678;2023-10-09T07:47:19;19.5;72.4
79513;SHT31;68962;51.980;5.678;2023-10-09T07:49:55;19.5;72.4
79513;SHT31;68962;51.980;5.678;2023-10-09T07:52:25;19.5;72.8
79513;SHT31;68962;51.980;5.678;2023-10-09T07:54:59;19.6;72.9
79513;SHT31;68962;51.980;5.678;2023-10-09T07:57:39;19.7;72.8
79513;SHT31;68962;51.980;5.678;2023-10-09T08:00:13;19.8;72.6
79513;SHT31;68962;51.980;5.678;2023-10-09T08:03:10;19.9;71.8
79513;SHT31;68962;51.980;5.678;2023-10-09T08:05:44;19.9;71.8
79513;SHT31;68962;51.980;5.678;2023-10-09T08:08:14;19.9;71.9
79513;SHT31;68962;51.980;5.678;2023-10-09T08:18:04;20.6;70.1
79513;SHT31;68962;51.980;5.678;2023-10-09T08:20:46;20.8;69.2
79513;SHT31;68962;51.980;5.678;2023-10-09T08:24:14;20.9;68.7
79513;SHT31;68962;51.980;5.678;2023-10-09T08:27:37;21.0;68.3
79513;SHT31;68962;51.980;5.678;2023-10-09T08:30:27;21.1;67.9
79513;SHT31;68962;51.980;5.678;2023-10-09T08:33:17;21.1;67.9
79513;SHT31;68962;51.980;5.678;2023-10-09T08:37:58;21.3;67.5
79513;SHT31;68962;51.980;5.678;2023-10-09T08:43:15;21.4;66.8
79513;SHT31;68962;51.980;5.678;2023-10-09T08:45:46;21.4;66.6
79513;SHT31;68962;51.980;5.678;2023-10-09T08:50:27;21.5;66.9
79513;SHT31;68962;51.980;5.678;2023-10-09T08:58:30;21.6;66.6
79513;SHT31;68962;51.980;5.678;2023-10-09T09:01:03;21.7;66.6
79513;SHT31;68962;51.980;5.678;2023-10-09T09:03:42;21.8;66.2
79513;SHT31;68962;51.980;5.678;2023-10-09T09:06:13;21.9;66.2
79513;SHT31;68962;51.980;5.678;2023-10-09T09:08:43;22.1;65.8
79513;SHT31;68962;51.980;5.678;2023-10-09T09:11:18;22.2;64.9
79513;SHT31;68962;51.980;5.678;2023-10-09T09:14:04;22.4;64.6
79513;SHT31;68962;51.980;5.678;2023-10-09T09:16:42;22.5;63.8
79513;SHT31;68962;51.980;5.678;2023-10-09T09:19:18;22.7;63.5
79513;SHT31;68962;51.980;5.678;2023-10-09T09:21:51;22.7;62.9
79513;SHT31;68962;51.980;5.678;2023-10-09T09:24:25;22.8;62.8
79513;SHT31;68962;51.980;5.678;2023-10-09T09:27:03;22.8;62.9
79513;SHT31;68962;51.980;5.678;2023-10-09T09:29:45;22.8;62.8
79513;SHT31;68962;51.980;5.678;2023-10-09T09:32:28;22.8;62.8
79513;SHT31;68962;51.980;5.678;2023-10-09T09:35:13;22.7;63.2
79513;SHT31;68962;51.980;5.678;2023-10-09T09:37:53;22.7;63.2
79513;SHT31;68962;51.980;5.678;2023-10-09T09:40:27;22.7;63.4
79513;SHT31;68962;51.980;5.678;2023-10-09T09:43:00;22.8;63.5
79513;SHT31;68962;51.980;5.678;2023-10-09T09:45:33;22.8;63.6
79513;SHT31;68962;51.980;5.678;2023-10-09T09:48:03;22.8;63.7
79513;SHT31;68962;51.980;5.678;2023-10-09T09:50:37;22.9;63.2
79513;SHT31;68962;51.980;5.678;2023-10-09T09:53:10;22.9;62.7
79513;SHT31;68962;51.980;5.678;2023-10-09T09:55:46;23.0;62.7
79513;SHT31;68962;51.980;5.678;2023-10-09T09:58:18;23.0;62.3
79513;SHT31;68962;51.980;5.678;2023-10-09T10:00:52;23.0;62.3
79513;SHT31;68962;51.980;5.678;2023-10-09T10:03:26;23.0;62.4
79513;SHT31;68962;51.980;5.678;2023-10-09T10:06:00;23.0;62.1
79513;SHT31;68962;51.980;5.678;2023-10-09T10:08:36;23.0;62.1
79513;SHT31;68962;51.980;5.678;2023-10-09T10:11:06;23.1;62.0
79513;SHT31;68962;51.980;5.678;2023-10-09T10:13:57;23.1;61.9
79513;SHT31;68962;51.980;5.678;2023-10-09T10:16:32;23.1;61.6
79513;SHT31;68962;51.980;5.678;2023-10-09T10:19:04;23.2;61.8
79513;SHT31;68962;51.980;5.678;2023-10-09T10:21:40;23.2;61.6
79513;SHT31;68962;51.980;5.678;2023-10-09T10:24:44;23.2;61.6
79513;SHT31;68962;51.980;5.678;2023-10-09T10:27:22;23.3;61.6
79513;SHT31;68962;51.980;5.678;2023-10-09T10:30:59;23.3;61.2
79513;SHT31;68962;51.980;5.678;2023-10-09T10:36:26;23.5;61.1
79513;SHT31;68962;51.980;5.678;2023-10-09T10:39:02;23.6;60.5
79513;SHT31;68962;51.980;5.678;2023-10-09T10:41:37;23.7;60.3
79513;SHT31;68962;51.980;5.678;2023-10-09T10:44:12;23.7;60.1
79513;SHT31;68962;51.980;5.678;2023-10-09T10:47:03;23.7;59.7
79513;SHT31;68962;51.980;5.678;2023-10-09T10:49:46;23.8;59.9
79513;SHT31;68962;51.980;5.678;2023-10-09T10:52:22;23.8;59.7
79513;SHT31;68962;51.980;5.678;2023-10-09T10:55:09;23.8;59.7
79513;SHT31;68962;51.980;5.678;2023-10-09T10:57:52;23.8;59.9
79513;SHT31;68962;51.980;5.678;2023-10-09T11:00:26;23.9;59.8
79513;SHT31;68962;51.980;5.678;2023-10-09T11:03:19;23.9;59.3
79513;SHT31;68962;51.980;5.678;2023-10-09T11:05:53;24.0;59.4
79513;SHT31;68962;51.980;5.678;2023-10-09T11:08:24;24.1;59.0
79513;SHT31;68962;51.980;5.678;2023-10-09T11:11:12;24.2;59.0
79513;SHT31;68962;51.980;5.678;2023-10-09T11:13:46;24.3;58.6
79513;SHT31;68962;51.980;5.678;2023-10-09T11:16:25;24.3;58.7
79513;SHT31;68962;51.980;5.678;2023-10-09T11:19:20;24.4;58.2
79513;SHT31;68962;51.980;5.678;2023-10-09T11:22:02;24.5;57.4
79513;SHT31;68962;51.980;5.678;2023-10-09T11:24:53;24.6;57.6
79513;SHT31;68962;51.980;5.678;2023-10-09T11:27:41;24.7;57.4
79513;SHT31;68962;51.980;5.678;2023-10-09T11:30:16;24.8;57.4
79513;SHT31;68962;51.980;5.678;2023-10-09T11:33:06;24.9;57.2
79513;SHT31;68962;51.980;5.678;2023-10-09T11:35:40;25.0;56.7
79513;SHT31;68962;51.980;5.678;2023-10-09T11:38:15;25.1;56.4
79513;SHT31;68962;51.980;5.678;2023-10-09T11:41:13;25.2;56.1
79513;SHT31;68962;51.980;5.678;2023-10-09T11:45:49;25.3;55.8
79513;SHT31;68962;51.980;5.678;2023-10-09T11:48:31;25.4;55.6
79513;SHT31;68962;51.980;5.678;2023-10-09T11:51:14;25.4;55.4
79513;SHT31;68962;51.980;5.678;2023-10-09T11:53:49;25.4;54.8
79513;SHT31;68962;51.980;5.678;2023-10-09T12:06:00;25.6;54.1
79513;SHT31;68962;51.980;5.678;2023-10-09T12:08:39;25.7;53.7
79513;SHT31;68962;51.980;5.678;2023-10-09T12:11:11;25.7;53.3
79513;SHT31;68962;51.980;5.678;2023-10-09T12:13:52;25.7;53.0
79513;SHT31;68962;51.980;5.678;2023-10-09T12:17:08;25.7;52.6
79513;SHT31;68962;51.980;5.678;2023-10-09T12:20:22;25.8;52.4
79513;SHT31;68962;51.980;5.678;2023-10-09T12:23:36;25.8;52.3
79513;SHT31;68962;51.980;5.678;2023-10-09T12:26:14;25.8;52.2
79513;SHT31;68962;51.980;5.678;2023-10-09T12:28:44;25.8;52.0
79513;SHT31;68962;51.980;5.678;2023-10-09T12:31:17;25.7;52.5
79513;SHT31;68962;51.980;5.678;2023-10-09T12:33:47;25.7;52.7
79513;SHT31;68962;51.980;5.678;2023-10-09T12:36:17;25.6;52.9
79513;SHT31;68962;51.980;5.678;2023-10-09T12:38:47;25.5;53.1
79513;SHT31;68962;51.980;5.678;2023-10-09T12:41:17;25.5;53.2
79513;SHT31;68962;51.980;5.678;2023-10-09T12:43:51;25.4;53.2
79513;SHT31;68962;51.980;5.678;2023-10-09T12:46:21;25.3;53.4
79513;SHT31;68962;51.980;5.678;2023-10-09T12:48:52;25.3;53.5
79513;SHT31;68962;51.980;5.678;2023-10-09T12:51:22;25.2;53.9
79513;SHT31;68962;51.980;5.678;2023-10-09T12:53:56;25.1;53.8
79513;SHT31;68962;51.980;5.678;2023-10-09T12:56:28;25.1;53.9
79513;SHT31;68962;51.980;5.678;2023-10-09T12:59:07;25.0;54.3
79513;SHT31;68962;51.980;5.678;2023-10-09T13:01:42;25.0;54.6
79513;SHT31;68962;51.980;5.678;2023-10-09T13:04:14;25.1;54.6
79513;SHT31;68962;51.980;5.678;2023-10-09T13:06:55;25.1;54.4
79513;SHT31;68962;51.980;5.678;2023-10-09T13:09:30;25.2;54.3
79513;SHT31;68962;51.980;5.678;2023-10-09T13:12:06;25.2;54.1
79513;SHT31;68962;51.980;5.678;2023-10-09T13:14:40;25.2;54.2
79513;SHT31;68962;51.980;5.678;2023-10-09T13:17:08;25.2;54.3
79513;SHT31;68962;51.980;5.678;2023-10-09T13:19:37;25.2;54.3
79513;SHT31;68962;51.980;5.678;2023-10-09T13:22:06;25.2;54.2
79513;SHT31;68962;51.980;5.678;2023-10-09T13:24:39;25.2;54.5
79513;SHT31;68962;51.980;5.678;2023-10-09T13:27:10;25.1;54.5
79513;SHT31;68962;51.980;5.678;2023-10-09T13:29:40;25.1;54.8
79513;SHT31;68962;51.980;5.678;2023-10-09T13:32:09;25.0;54.9
79513;SHT31;68962;51.980;5.678;2023-10-09T13:34:42;25.0;55.1
79513;SHT31;68962;51.980;5.678;2023-10-09T13:37:13;25.0;54.9
79513;SHT31;68962;51.980;5.678;2023-10-09T13:39:46;24.9;55.1
79513;SHT31;68962;51.980;5.678;2023-10-09T13:42:22;24.9;55.4
79513;SHT31;68962;51.980;5.678;2023-10-09T13:44:52;24.8;55.6
79513;SHT31;68962;51.980;5.678;2023-10-09T13:47:22;24.8;55.8
79513;SHT31;68962;51.980;5.678;2023-10-09T13:49:55;24.7;55.9
79513;SHT31;68962;51.980;5.678;2023-10-09T13:52:23;24.7;56.2
79513;SHT31;68962;51.980;5.678;2023-10-09T13:54:53;24.7;56.1
79513;SHT31;68962;51.980;5.678;2023-10-09T13:57:24;24.7;56.2
79513;SHT31;68962;51.980;5.678;2023-10-09T13:59:57;24.6;56.4
79513;SHT31;68962;51.980;5.678;2023-10-09T14:02:26;24.6;56.7
79513;SHT31;68962;51.980;5.678;2023-10-09T14:04:55;24.6;56.6
79513;SHT31;68962;51.980;5.678;2023-10-09T14:07:27;24.6;56.6
79513;SHT31;68962;51.980;5.678;2023-10-09T14:09:58;24.5;56.8
79513;SHT31;68962;51.980;5.678;2023-10-09T14:12:41;24.5;57.0
79513;SHT31;68962;51.980;5.678;2023-10-09T14:20:01;24.7;56.9
79513;SHT31;68962;51.980;5.678;2023-10-09T14:22:36;24.7;56.6
79513;SHT31;68962;51.980;5.678;2023-10-09T14:25:07;24.7;56.4
79513;SHT31;68962;51.980;5.678;2023-10-09T14:27:41;24.7;56.4
79513;SHT31;68962;51.980;5.678;2023-10-09T14:30:17;24.6;56.5
79513;SHT31;68962;51.980;5.678;2023-10-09T14:35:16;24.6;56.3
79513;SHT31;68962;51.980;5.678;2023-10-09T14:37:48;24.5;56.4
79513;SHT31;68962;51.980;5.678;2023-10-09T14:40:17;24.4;56.5
79513;SHT31;68962;51.980;5.678;2023-10-09T14:42:49;24.3;56.7
79513;SHT31;68962;51.980;5.678;2023-10-09T14:45:19;24.2;57.0
79513;SHT31;68962;51.980;5.678;2023-10-09T14:47:48;24.1;57.1
79513;SHT31;68962;51.980;5.678;2023-10-09T14:50:16;24.1;57.3
79513;SHT31;68962;51.980;5.678;2023-10-09T14:52:48;24.0;57.7
79513;SHT31;68962;51.980;5.678;2023-10-09T14:55:17;24.0;57.9
79513;SHT31;68962;51.980;5.678;2023-10-09T14:57:47;23.9;58.2
79513;SHT31;68962;51.980;5.678;2023-10-09T15:00:24;23.9;58.3
79513;SHT31;68962;51.980;5.678;2023-10-09T15:02:54;23.9;58.5
79513;SHT31;68962;51.980;5.678;2023-10-09T15:05:23;24.0;58.5
79513;SHT31;68962;51.980;5.678;2023-10-09T15:07:52;24.0;58.5
79513;SHT31;68962;51.980;5.678;2023-10-09T15:10:21;24.0;58.2
79513;SHT31;68962;51.980;5.678;2023-10-09T15:12:50;24.0;58.2
79513;SHT31;68962;51.980;5.678;2023-10-09T15:15:19;24.1;58.1
79513;SHT31;68962;51.980;5.678;2023-10-09T15:17:52;24.1;58.1
79513;SHT31;68962;51.980;5.678;2023-10-09T15:20:21;24.1;58.1
79513;SHT31;68962;51.980;5.678;2023-10-09T15:22:49;24.1;58.2
79513;SHT31;68962;51.980;5.678;2023-10-09T15:25:18;24.1;58.2
79513;SHT31;68962;51.980;5.678;2023-10-09T15:27:49;24.1;58.0
79513;SHT31;68962;51.980;5.678;2023-10-09T15:30:18;24.1;58.2
79513;SHT31;68962;51.980;5.678;2023-10-09T15:32:47;24.1;58.3
79513;SHT31;68962;51.980;5.678;2023-10-09T15:35:16;24.1;58.2
79513;SHT31;68962;51.980;5.678;2023-10-09T15:37:45;24.1;58.1
79513;SHT31;68962;51.980;5.678;2023-10-09T15:40:14;24.1;58.1
79513;SHT31;68962;51.980;5.678;2023-10-09T15:42:46;24.1;58.1
79513;SHT31;68962;51.980;5.678;2023-10-09T15:45:16;24.1;57.9
79513;SHT31;68962;51.980;5.678;2023-10-09T15:47:47;24.1;57.9
79513;SHT31;68962;51.980;5.678;2023-10-09T15:50:17;24.0;57.8
79513;SHT31;68962;51.980;5.678;2023-10-09T15:52:46;24.0;57.9
79513;SHT31;68962;51.980;5.678;2023-10-09T15:55:18;23.9;58.1
79513;SHT31;68962;51.980;5.678;2023-10-09T15:57:47;23.9;58.3
79513;SHT31;68962;51.980;5.678;2023-10-09T16:00:20;23.8;58.6
79513;SHT31;68962;51.980;5.678;2023-10-09T16:02:55;23.8;58.8
79513;SHT31;68962;51.980;5.678;2023-10-09T16:05:27;23.7;58.7
79513;SHT31;68962;51.980;5.678;2023-10-09T16:07:57;23.7;59.0
79513;SHT31;68962;51.980;5.678;2023-10-09T16:10:26;23.6;59.2
79513;SHT31;68962;51.980;5.678;2023-10-09T16:12:57;23.5;59.5
79513;SHT31;68962;51.980;5.678;2023-10-09T16:15:27;23.3;59.9
79513;SHT31;68962;51.980;5.678;2023-10-09T16:17:56;23.2;60.3
79513;SHT31;68962;51.980;5.678;2023-10-09T16:20:32;23.1;60.7
79513;SHT31;68962;51.980;5.678;2023-10-09T16:23:03;23.0;61.0
79513;SHT31;68962;51.980;5.678;2023-10-09T16:25:33;22.9;61.4
79513;SHT31;68962;51.980;5.678;2023-10-09T16:28:03;22.8;61.8
79513;SHT31;68962;51.980;5.678;2023-10-09T16:30:32;22.7;62.1
79513;SHT31;68962;51.980;5.678;2023-10-09T16:33:02;22.6;62.4
79513;SHT31;68962;51.980;5.678;2023-10-09T16:35:31;22.6;62.6
79513;SHT31;68962;51.980;5.678;2023-10-09T16:38:04;22.6;62.8
79513;SHT31;68962;51.980;5.678;2023-10-09T16:40:38;22.5;62.9
79513;SHT31;68962;51.980;5.678;2023-10-09T16:43:12;22.5;63.0
79513;SHT31;68962;51.980;5.678;2023-10-09T16:45:45;22.5;63.1
79513;SHT31;68962;51.980;5.678;2023-10-09T16:48:14;22.4;63.3
79513;SHT31;68962;51.980;5.678;2023-10-09T16:50:43;22.4;63.4
79513;SHT31;68962;51.980;5.678;2023-10-09T16:53:13;22.3;63.6
79513;SHT31;68962;51.980;5.678;2023-10-09T16:55:43;22.3;63.8
79513;SHT31;68962;51.980;5.678;2023-10-09T16:58:11;22.3;64.0
79513;SHT31;68962;51.980;5.678;2023-10-09T17:00:41;22.3;64.3
79513;SHT31;68962;51.980;5.678;2023-10-09T17:03:12;22.3;64.3
79513;SHT31;68962;51.980;5.678;2023-10-09T17:05:45;22.4;64.2
79513;SHT31;68962;51.980;5.678;2023-10-09T17:08:26;22.5;63.8
79513;SHT31;68962;51.980;5.678;2023-10-09T17:11:07;22.6;63.5
79513;SHT31;68962;51.980;5.678;2023-10-09T17:13:39;22.6;63.3
79513;SHT31;68962;51.980;5.678;2023-10-09T17:16:13;22.6;63.2
79513;SHT31;68962;51.980;5.678;2023-10-09T17:18:43;22.6;63.3
79513;SHT31;68962;51.980;5.678;2023-10-09T17:21:14;22.5;63.3
79513;SHT31;68962;51.980;5.678;2023-10-09T17:23:43;22.5;63.5
79513;SHT31;68962;51.980;5.678;2023-10-09T17:26:14;22.4;63.7
79513;SHT31;68962;51.980;5.678;2023-10-09T17:28:45;22.3;64.2
79513;SHT31;68962;51.980;5.678;2023-10-09T17:31:14;22.2;64.5
79513;SHT31;68962;51.980;5.678;2023-10-09T17:33:46;22.1;64.7
79513;SHT31;68962;51.980;5.678;2023-10-09T17:36:16;22.1;64.9
79513;SHT31;68962;51.980;5.678;2023-10-09T17:38:46;22.0;65.2
79513;SHT31;68962;51.980;5.678;2023-10-09T17:41:17;21.9;65.6
79513;SHT31;68962;51.980;5.678;2023-10-09T17:43:47;21.9;65.9
79513;SHT31;68962;51.980;5.678;2023-10-09T17:46:19;21.9;65.8
79513;SHT31;68962;51.980;5.678;2023-10-09T17:48:48;21.9;65.8